[Skip to Content]
Hélimed
Site de réservation

R44 Porquerolles

Météo et prévisions du jour :

LFML 262200Z AUTO 16002KT CAVOK 19/11 Q1017 NOSIG

TAF LFML 262000Z 2621/2803 VRB05KT CAVOK TX27/2712Z TN16/2703Z

Le site de l'AUABLF, avec les dernières infos concernant le terrain, est ici.